Time;durP1;ratioP1;P1;durP2;ratioP2;P2;SDS_P1;SDS_P2;PMS_P1;PMS_P2;Temp;Humidity;BMP_temperature;BMP_pressure;BME280_temperature;BME280_humidity;BME280_pressure;Samples;Min_cycle;Max_cycle;Signal;HPM_P1;HPM_P2
2022/03/15 00:00:43;;;;;;;10.77;5.30;;;12.30;93.90;;;;;;5056847;28;20415;-75
2022/03/15 00:03:08;;;;;;;8.43;4.70;;;12.30;93.70;;;;;;5059091;28;20195;-75
2022/03/15 00:05:35;;;;;;;5.77;5.17;;;12.40;93.60;;;;;;5057605;28;20223;-75
2022/03/15 00:08:01;;;;;;;9.63;5.23;;;12.40;93.50;;;;;;5042867;28;20483;-75
2022/03/15 00:10:28;;;;;;;7.67;4.90;;;12.20;93.50;;;;;;5056804;28;20369;-76
2022/03/15 00:12:56;;;;;;;8.20;5.57;;;12.30;93.70;;;;;;5055263;28;20228;-75
2022/03/15 00:15:23;;;;;;;9.53;4.60;;;12.10;94.10;;;;;;5052649;28;20430;-75
2022/03/15 00:17:48;;;;;;;11.20;5.30;;;12.20;94.00;;;;;;5051213;28;20559;-74
2022/03/15 00:20:18;;;;;;;9.90;5.43;;;12.10;94.20;;;;;;5055541;28;20470;-73
2022/03/15 00:22:44;;;;;;;6.67;4.80;;;12.20;94.10;;;;;;5057640;28;20233;-74
2022/03/15 00:25:11;;;;;;;6.47;5.23;;;12.20;94.10;;;;;;5057039;28;20430;-73
2022/03/15 00:27:38;;;;;;;8.63;5.30;;;12.20;94.10;;;;;;5052424;28;20438;-74
2022/03/15 00:30:05;;;;;;;8.03;5.20;;;12.20;94.20;;;;;;5053785;28;20440;-74
2022/03/15 00:32:32;;;;;;;11.70;5.47;;;12.30;94.30;;;;;;5058523;28;20641;-75
2022/03/15 00:34:58;;;;;;;9.43;5.57;;;12.20;94.20;;;;;;5056561;28;20977;-75
2022/03/15 00:37:24;;;;;;;7.33;4.63;;;11.80;95.10;;;;;;5038227;28;20497;-74
2022/03/15 00:39:50;;;;;;;8.20;5.57;;;12.00;95.00;;;;;;5055143;28;20209;-74
2022/03/15 00:42:17;;;;;;;7.90;4.87;;;12.10;94.90;;;;;;5057752;28;20203;-75
2022/03/15 00:44:42;;;;;;;10.43;4.33;;;12.10;94.90;;;;;;5052451;28;20457;-76
2022/03/15 00:47:09;;;;;;;6.73;5.20;;;11.90;95.00;;;;;;5055101;28;20460;-74
2022/03/15 00:49:35;;;;;;;11.47;5.17;;;11.70;95.50;;;;;;5057551;28;20430;-74
2022/03/15 00:52:00;;;;;;;5.70;4.80;;;11.90;95.50;;;;;;5034739;28;20984;-73
2022/03/15 00:54:26;;;;;;;7.90;5.10;;;11.80;95.30;;;;;;5056530;28;20488;-74
2022/03/15 00:56:52;;;;;;;5.40;4.83;;;11.90;95.30;;;;;;5053464;28;20211;-74
2022/03/15 00:59:19;;;;;;;6.17;4.87;;;11.70;95.50;;;;;;5055404;28;20509;-75
2022/03/15 01:01:45;;;;;;;7.77;5.50;;;11.80;95.50;;;;;;5043770;28;20208;-74
2022/03/15 01:04:11;;;;;;;7.40;4.33;;;11.80;95.70;;;;;;5056150;28;20426;-74
2022/03/15 01:06:38;;;;;;;5.40;4.50;;;11.80;95.50;;;;;;5052437;28;20487;-75
2022/03/15 01:09:04;;;;;;;5.37;4.73;;;11.90;95.50;;;;;;5053276;28;21599;-75
2022/03/15 01:11:30;;;;;;;9.63;5.00;;;11.80;95.50;;;;;;5037902;28;20484;-75
2022/03/15 01:13:56;;;;;;;9.83;4.80;;;11.90;95.50;;;;;;5054036;28;20441;-75
2022/03/15 01:16:22;;;;;;;5.47;4.30;;;11.70;95.80;;;;;;5053053;28;20481;-75
2022/03/15 01:18:47;;;;;;;9.37;5.17;;;11.60;95.90;;;;;;5035953;28;20185;-74
2022/03/15 01:21:14;;;;;;;5.50;4.57;;;11.70;95.90;;;;;;5036927;28;20183;-72
2022/03/15 01:23:40;;;;;;;7.53;4.77;;;11.80;95.80;;;;;;5041242;28;20728;-76
2022/03/15 01:26:06;;;;;;;9.30;5.20;;;11.70;95.90;;;;;;5057029;28;20487;-71
2022/03/15 01:28:32;;;;;;;10.00;5.10;;;11.70;96.20;;;;;;5057065;28;20430;-73
2022/03/15 01:30:58;;;;;;;7.30;5.33;;;11.70;96.10;;;;;;5057855;28;20482;-75
2022/03/15 01:33:24;;;;;;;6.53;4.33;;;11.70;96.20;;;;;;5057503;28;20461;-77
2022/03/15 01:35:49;;;;;;;6.77;4.80;;;11.60;96.20;;;;;;5053484;28;20565;-74
2022/03/15 01:38:15;;;;;;;5.80;4.80;;;11.70;96.30;;;;;;5039017;28;20210;-74
2022/03/15 01:40:41;;;;;;;5.50;4.00;;;11.70;96.20;;;;;;5057144;28;20184;-74
2022/03/15 01:43:07;;;;;;;4.33;3.93;;;11.70;96.30;;;;;;5057390;28;20614;-77
2022/03/15 01:45:38;;;;;;;8.40;4.10;;;11.80;96.20;;;;;;5055866;28;20682;-76
2022/03/15 01:48:04;;;;;;;6.10;4.50;;;11.90;96.20;;;;;;5056209;28;20202;-75
2022/03/15 01:50:30;;;;;;;6.63;4.20;;;11.90;96.20;;;;;;5038920;28;20434;-76
2022/03/15 01:52:56;;;;;;;5.73;4.27;;;11.90;96.30;;;;;;5041362;28;20521;-75
2022/03/15 01:55:22;;;;;;;5.43;3.60;;;11.90;96.30;;;;;;5058510;28;20209;-76
2022/03/15 01:57:49;;;;;;;7.53;4.47;;;11.90;96.40;;;;;;5054645;28;21004;-76
2022/03/15 02:00:17;;;;;;;5.87;3.70;;;11.90;96.30;;;;;;5060424;28;20179;-75
2022/03/15 02:02:43;;;;;;;7.87;3.67;;;11.70;96.60;;;;;;5057996;28;20452;-76
2022/03/15 02:05:10;;;;;;;7.80;4.43;;;11.60;96.70;;;;;;5061891;28;20429;-76
2022/03/15 02:07:35;;;;;;;6.63;3.83;;;11.70;96.90;;;;;;5058985;28;20437;-75
2022/03/15 02:10:01;;;;;;;8.50;4.50;;;11.70;96.90;;;;;;5056392;28;20429;-76
2022/03/15 02:12:28;;;;;;;5.23;4.33;;;11.60;97.10;;;;;;5056336;28;20204;-73
2022/03/15 02:14:54;;;;;;;7.20;4.87;;;11.30;96.90;;;;;;5052714;28;20195;-73
2022/03/15 02:17:19;;;;;;;8.10;4.37;;;11.50;97.50;;;;;;5054241;28;20598;-73
2022/03/15 02:19:45;;;;;;;5.93;4.40;;;11.80;97.20;;;;;;5056352;28;20495;-73
2022/03/15 02:22:11;;;;;;;6.03;4.63;;;11.90;97.00;;;;;;5053961;28;20206;-73
2022/03/15 02:24:39;;;;;;;5.07;4.13;;;11.80;97.30;;;;;;5055813;28;20179;-74
2022/03/15 02:27:04;;;;;;;5.33;4.37;;;11.80;97.10;;;;;;5053731;28;20654;-75
2022/03/15 02:29:30;;;;;;;8.07;5.00;;;11.70;97.30;;;;;;5039970;28;20517;-75
2022/03/15 02:31:55;;;;;;;6.37;4.50;;;11.70;97.60;;;;;;5052542;28;20211;-74
2022/03/15 02:34:22;;;;;;;5.70;4.77;;;11.70;97.20;;;;;;5048698;28;20199;-74
2022/03/15 02:36:48;;;;;;;6.87;4.10;;;11.50;97.40;;;;;;5056544;28;20211;-74
2022/03/15 02:39:13;;;;;;;9.77;5.00;;;11.40;97.70;;;;;;5055508;28;20436;-73
2022/03/15 02:41:39;;;;;;;6.13;4.77;;;11.40;97.90;;;;;;5025682;28;20226;-72
2022/03/15 02:44:06;;;;;;;7.20;4.80;;;11.30;98.00;;;;;;5058756;28;20767;-73
2022/03/15 02:46:33;;;;;;;7.87;5.00;;;11.20;98.40;;;;;;5055552;28;20534;-73
2022/03/15 02:48:58;;;;;;;6.97;4.90;;;11.30;98.50;;;;;;5054476;28;20790;-72
2022/03/15 02:51:24;;;;;;;8.70;4.80;;;11.20;98.70;;;;;;5038889;28;20446;-73
2022/03/15 02:53:52;;;;;;;6.40;4.63;;;11.20;98.80;;;;;;5056948;28;20184;-75
2022/03/15 02:56:18;;;;;;;6.30;5.40;;;11.20;98.90;;;;;;5041667;28;21024;-75
2022/03/15 02:58:44;;;;;;;4.60;4.10;;;11.30;99.00;;;;;;5059084;28;20484;-72
2022/03/15 03:01:10;;;;;;;11.27;5.27;;;11.30;99.00;;;;;;5037243;28;20530;-73
2022/03/15 03:03:36;;;;;;;6.37;4.80;;;11.30;98.90;;;;;;5058213;28;20665;-72
2022/03/15 03:06:02;;;;;;;11.13;5.20;;;11.20;99.10;;;;;;5057817;28;20180;-72
2022/03/15 03:08:28;;;;;;;6.77;4.60;;;11.30;98.90;;;;;;5059746;28;20440;-73
2022/03/15 03:10:55;;;;;;;5.77;5.20;;;11.30;99.30;;;;;;5042569;28;20422;-73
2022/03/15 03:13:26;;;;;;;6.90;5.70;;;11.40;99.10;;;;;;5059807;28;20451;-74
2022/03/15 03:15:57;;;;;;;5.80;4.10;;;11.30;99.20;;;;;;5043639;28;20461;-73
2022/03/15 03:18:23;;;;;;;8.33;4.90;;;11.30;99.50;;;;;;5059091;28;20469;-73
2022/03/15 03:20:50;;;;;;;9.73;5.07;;;11.30;99.50;;;;;;5056962;28;20988;-73
2022/03/15 03:23:17;;;;;;;6.67;4.30;;;11.20;99.90;;;;;;5057802;28;20556;-73
2022/03/15 03:25:43;;;;;;;9.57;4.67;;;11.30;99.70;;;;;;5058966;28;20546;-73
2022/03/15 03:28:09;;;;;;;9.50;5.43;;;11.30;99.70;;;;;;5040748;28;21048;-71
2022/03/15 03:30:37;;;;;;;4.87;4.37;;;11.20;99.70;;;;;;5060179;28;20545;-73
2022/03/15 03:33:03;;;;;;;9.57;5.73;;;11.20;99.70;;;;;;5044895;28;20997;-73
2022/03/15 03:35:29;;;;;;;6.90;4.63;;;11.20;99.90;;;;;;5060806;28;20557;-73
2022/03/15 03:37:56;;;;;;;8.87;4.87;;;11.10;99.90;;;;;;5039125;28;20536;-73
2022/03/15 03:40:22;;;;;;;8.23;4.90;;;11.10;99.90;;;;;;5066989;28;20429;-73
2022/03/15 03:42:47;;;;;;;6.57;5.87;;;11.10;99.90;;;;;;5059268;28;20449;-73
2022/03/15 03:45:13;;;;;;;5.80;5.30;;;11.10;99.90;;;;;;5060323;28;20175;-73
2022/03/15 03:47:39;;;;;;;9.23;5.13;;;11.00;99.90;;;;;;5057466;28;20238;-73
2022/03/15 03:50:08;;;;;;;9.70;4.97;;;11.10;99.90;;;;;;5060992;28;20187;-72
2022/03/15 03:52:34;;;;;;;5.83;4.70;;;11.00;99.90;;;;;;5062113;28;20282;-73
2022/03/15 03:55:00;;;;;;;9.77;5.10;;;10.90;99.90;;;;;;5060187;28;20889;-73
2022/03/15 03:57:26;;;;;;;7.20;4.57;;;11.00;99.90;;;;;;5060034;28;20215;-73
2022/03/15 03:59:51;;;;;;;7.77;4.73;;;11.10;99.90;;;;;;5058268;28;20576;-73
2022/03/15 04:02:17;;;;;;;8.40;4.93;;;11.00;99.90;;;;;;5059630;28;20270;-73
2022/03/15 04:04:44;;;;;;;7.20;5.00;;;10.50;99.90;;;;;;5057516;28;21605;-73
2022/03/15 04:07:11;;;;;;;7.53;5.17;;;10.80;99.90;;;;;;5042355;28;20384;-73
2022/03/15 04:09:38;;;;;;;6.07;4.70;;;10.60;99.90;;;;;;5047152;28;20433;-74
2022/03/15 04:12:05;;;;;;;7.17;5.30;;;10.60;99.90;;;;;;5060739;28;20526;-73
2022/03/15 04:14:30;;;;;;;6.33;5.27;;;10.40;99.90;;;;;;5059512;28;20433;-75
2022/03/15 04:16:56;;;;;;;5.97;4.77;;;10.50;99.90;;;;;;5057921;28;20462;-74
2022/03/15 04:19:21;;;;;;;8.93;5.17;;;10.40;99.90;;;;;;5043289;28;20258;-73
2022/03/15 04:21:47;;;;;;;7.73;5.00;;;10.50;99.90;;;;;;5059072;28;20207;-74
2022/03/15 04:24:14;;;;;;;8.53;5.13;;;10.40;99.90;;;;;;5058849;28;20215;-75
2022/03/15 04:26:41;;;;;;;6.70;4.90;;;10.60;99.90;;;;;;5058679;28;20676;-74
2022/03/15 04:29:07;;;;;;;7.47;5.13;;;10.50;99.90;;;;;;5041319;28;20438;-74
2022/03/15 04:31:32;;;;;;;8.03;4.63;;;10.70;99.90;;;;;;5058646;28;20444;-74
2022/03/15 04:33:58;;;;;;;6.40;5.13;;;10.70;99.90;;;;;;5060734;28;20530;-75
2022/03/15 04:36:24;;;;;;;6.70;5.20;;;10.50;99.90;;;;;;5058160;28;20203;-75
2022/03/15 04:38:49;;;;;;;11.03;6.10;;;10.20;99.90;;;;;;5044885;28;20180;-76
2022/03/15 04:41:15;;;;;;;10.57;5.13;;;10.20;99.90;;;;;;5059551;28;20882;-76
2022/03/15 04:43:41;;;;;;;5.30;4.80;;;10.40;99.90;;;;;;5061494;28;20265;-74
2022/03/15 04:46:07;;;;;;;8.30;4.80;;;10.40;99.90;;;;;;5057557;28;20175;-75
2022/03/15 04:48:33;;;;;;;6.13;5.30;;;10.60;99.90;;;;;;5062128;28;20176;-74
2022/03/15 04:50:59;;;;;;;8.10;5.13;;;10.60;99.90;;;;;;5058107;28;20430;-74
2022/03/15 04:53:24;;;;;;;9.13;5.57;;;10.80;99.90;;;;;;5058784;28;20498;-75
2022/03/15 04:55:50;;;;;;;8.10;5.13;;;10.60;99.90;;;;;;5060861;28;20190;-75
2022/03/15 04:58:16;;;;;;;10.13;4.80;;;10.60;99.90;;;;;;5056897;28;20206;-75
2022/03/15 05:00:41;;;;;;;6.93;5.60;;;10.80;99.90;;;;;;5059782;28;20328;-74
2022/03/15 05:03:07;;;;;;;14.43;5.57;;;10.80;99.90;;;;;;5058635;28;20197;-74
2022/03/15 05:05:32;;;;;;;6.93;5.50;;;10.80;99.90;;;;;;5060042;28;20183;-75
2022/03/15 05:07:58;;;;;;;8.57;6.00;;;10.60;99.90;;;;;;5056604;28;20214;-75
2022/03/15 05:13:09;;;;;;;9.03;5.50;;;10.80;99.90;;;;;;5055498;28;20233;-74
2022/03/15 05:15:34;;;;;;;5.67;5.07;;;10.50;99.90;;;;;;5057284;28;20429;-74
2022/03/15 05:18:01;;;;;;;6.10;4.93;;;10.60;99.90;;;;;;5056391;28;20453;-74
2022/03/15 05:20:29;;;;;;;8.30;5.17;;;10.60;99.90;;;;;;5057003;28;20167;-75
2022/03/15 05:22:54;;;;;;;6.23;5.60;;;10.80;99.90;;;;;;5043048;28;20453;-74
2022/03/15 05:25:20;;;;;;;7.43;5.90;;;10.80;99.90;;;;;;5058428;28;20429;-74
2022/03/15 05:27:45;;;;;;;7.10;4.63;;;10.90;99.90;;;;;;5039039;28;20190;-76
2022/03/15 05:30:12;;;;;;;10.07;5.20;;;10.90;99.90;;;;;;5058821;28;20188;-75
2022/03/15 05:32:38;;;;;;;8.53;5.57;;;10.90;99.90;;;;;;5059596;28;21573;-75
2022/03/15 05:35:04;;;;;;;5.97;4.63;;;10.70;99.90;;;;;;5043768;28;20437;-75
2022/03/15 05:37:30;;;;;;;6.73;4.87;;;10.50;99.90;;;;;;5060058;28;20252;-74
2022/03/15 05:39:56;;;;;;;9.23;5.50;;;10.10;99.90;;;;;;5055236;28;20558;-74
2022/03/15 05:42:21;;;;;;;6.57;5.27;;;9.90;99.90;;;;;;5048174;28;20191;-75
2022/03/15 05:44:47;;;;;;;11.53;5.93;;;9.70;99.90;;;;;;5042544;28;20180;-75
2022/03/15 05:47:13;;;;;;;6.33;4.67;;;9.60;99.90;;;;;;5060034;28;20187;-75
2022/03/15 05:49:39;;;;;;;9.77;5.00;;;9.60;99.90;;;;;;5061629;28;20465;-75
2022/03/15 05:52:07;;;;;;;10.10;5.30;;;9.70;99.90;;;;;;5059321;28;20479;-76
2022/03/15 05:54:34;;;;;;;7.33;5.43;;;9.70;99.90;;;;;;5060260;28;20205;-75
2022/03/15 05:56:59;;;;;;;7.37;5.23;;;9.50;99.90;;;;;;5039541;28;21228;-76
2022/03/15 05:59:25;;;;;;;7.73;4.63;;;9.70;99.90;;;;;;5056487;28;20476;-75
2022/03/15 06:01:51;;;;;;;9.10;6.07;;;9.90;99.90;;;;;;5058492;28;20708;-74
2022/03/15 06:04:17;;;;;;;7.93;5.13;;;9.80;99.90;;;;;;5055707;28;20425;-73
2022/03/15 06:06:43;;;;;;;10.47;5.87;;;9.90;99.90;;;;;;5055643;28;20191;-73
2022/03/15 06:09:09;;;;;;;5.90;5.13;;;9.90;99.90;;;;;;5053948;28;20179;-74
2022/03/15 06:11:34;;;;;;;10.03;5.83;;;9.80;99.90;;;;;;5059795;28;20543;-75
2022/03/15 06:14:00;;;;;;;8.67;5.73;;;9.70;99.90;;;;;;5057159;28;20183;-74
2022/03/15 06:16:26;;;;;;;9.70;5.83;;;9.60;99.90;;;;;;5054887;28;20202;-74
2022/03/15 06:18:52;;;;;;;8.17;5.73;;;9.50;99.90;;;;;;5058749;28;20278;-74
2022/03/15 06:21:18;;;;;;;7.70;6.20;;;9.50;99.90;;;;;;5035027;28;20207;-73
2022/03/15 06:23:44;;;;;;;10.67;5.70;;;9.60;99.90;;;;;;5058438;28;20179;-74
2022/03/15 06:26:10;;;;;;;10.27;5.80;;;9.60;99.90;;;;;;5047944;28;20484;-75
2022/03/15 06:28:36;;;;;;;10.43;5.70;;;9.80;99.90;;;;;;5055361;28;20282;-72
2022/03/15 06:31:03;;;;;;;10.70;6.03;;;9.80;99.90;;;;;;5054947;28;20422;-74
2022/03/15 06:33:29;;;;;;;12.47;6.47;;;9.70;99.90;;;;;;5041046;28;20453;-73
2022/03/15 06:35:55;;;;;;;7.33;6.03;;;9.60;99.90;;;;;;5060373;28;20444;-73
2022/03/15 06:38:21;;;;;;;10.40;6.03;;;9.40;99.90;;;;;;5055048;28;20555;-75
2022/03/15 06:40:48;;;;;;;9.40;7.30;;;9.40;99.90;;;;;;5057117;28;20428;-73
2022/03/15 06:43:14;;;;;;;6.10;5.50;;;9.40;99.90;;;;;;5058795;28;20433;-73
2022/03/15 06:45:44;;;;;;;6.10;5.50;;;9.30;99.90;;;;;;5055313;28;20445;-73
2022/03/15 06:48:09;;;;;;;7.67;5.83;;;9.40;99.90;;;;;;5057072;28;20194;-74
2022/03/15 06:50:36;;;;;;;11.33;6.10;;;9.30;99.90;;;;;;5058457;28;20464;-74
2022/03/15 06:53:02;;;;;;;12.43;6.63;;;9.50;99.90;;;;;;5043777;28;20206;-74
2022/03/15 06:55:29;;;;;;;5.57;4.97;;;9.30;99.90;;;;;;5057126;28;20463;-74
2022/03/15 06:57:55;;;;;;;11.57;5.57;;;9.30;99.90;;;;;;5058398;28;20203;-73
2022/03/15 07:00:21;;;;;;;7.30;5.63;;;9.00;99.90;;;;;;5059568;28;20487;-74
2022/03/15 07:02:47;;;;;;;11.70;6.53;;;9.00;99.90;;;;;;5059026;28;20784;-72
2022/03/15 07:05:12;;;;;;;11.13;5.70;;;9.00;99.90;;;;;;5062417;28;20425;-73
2022/03/15 07:07:38;;;;;;;10.10;6.20;;;9.30;99.90;;;;;;5058688;28;20179;-73
2022/03/15 07:10:06;;;;;;;7.40;6.27;;;9.40;99.90;;;;;;5060941;28;20732;-74
2022/03/15 07:12:33;;;;;;;8.50;5.50;;;9.10;99.90;;;;;;5061406;28;20854;-77
2022/03/15 07:15:00;;;;;;;10.57;6.10;;;9.00;99.90;;;;;;5061133;28;20441;-76
2022/03/15 07:17:27;;;;;;;11.50;6.70;;;9.00;99.90;;;;;;5060350;28;20860;-73
2022/03/15 07:19:52;;;;;;;13.07;6.17;;;9.00;99.90;;;;;;5046202;28;21159;-76
2022/03/15 07:22:18;;;;;;;8.93;6.07;;;9.20;99.90;;;;;;5059590;28;20526;-75
2022/03/15 07:24:44;;;;;;;10.80;6.83;;;9.20;99.90;;;;;;5057430;28;20188;-75
2022/03/15 07:27:09;;;;;;;11.43;6.40;;;9.30;99.90;;;;;;5059156;28;20266;-74
2022/03/15 07:29:35;;;;;;;9.60;6.57;;;9.40;99.90;;;;;;5056388;28;20649;-73
2022/03/15 07:32:01;;;;;;;10.60;6.50;;;9.50;99.90;;;;;;5057364;28;20204;-73
2022/03/15 07:34:26;;;;;;;9.07;5.67;;;9.30;99.90;;;;;;5058315;28;20194;-75
2022/03/15 07:36:52;;;;;;;7.60;6.33;;;9.30;99.90;;;;;;5057265;28;21015;-72
2022/03/15 07:39:18;;;;;;;15.23;5.70;;;9.30;99.90;;;;;;5058618;28;20588;-73
2022/03/15 07:41:46;;;;;;;8.93;5.77;;;9.40;99.90;;;;;;5058682;28;20460;-72
2022/03/15 07:44:12;;;;;;;7.00;6.30;;;9.30;99.90;;;;;;5038968;28;20211;-73
2022/03/15 07:46:38;;;;;;;9.10;5.93;;;9.20;99.90;;;;;;5059894;28;20512;-73
2022/03/15 07:49:04;;;;;;;11.07;6.47;;;9.20;99.90;;;;;;5053843;28;20482;-73
2022/03/15 07:51:30;;;;;;;10.63;7.03;;;9.50;99.90;;;;;;5046901;28;20482;-73
2022/03/15 07:53:57;;;;;;;15.40;8.43;;;9.50;99.90;;;;;;5057875;28;20472;-72
2022/03/15 07:56:23;;;;;;;11.87;6.90;;;9.50;99.90;;;;;;5056772;28;20187;-73
2022/03/15 07:58:49;;;;;;;11.00;7.17;;;9.50;99.90;;;;;;5060681;28;20480;-74
2022/03/15 08:01:14;;;;;;;12.57;7.60;;;9.40;99.90;;;;;;5060213;28;20467;-76
2022/03/15 08:03:40;;;;;;;11.03;6.87;;;9.50;99.90;;;;;;5058023;28;20433;-73
2022/03/15 08:06:06;;;;;;;10.63;6.47;;;9.80;99.90;;;;;;5040953;28;20552;-74
2022/03/15 08:08:31;;;;;;;10.47;6.67;;;9.70;99.90;;;;;;5060217;28;20175;-72
2022/03/15 08:10:57;;;;;;;13.37;6.87;;;9.70;99.90;;;;;;5057851;28;20569;-73
2022/03/15 08:13:23;;;;;;;10.10;6.80;;;10.20;99.90;;;;;;5062713;28;20206;-73
2022/03/15 08:15:48;;;;;;;15.03;7.17;;;10.50;99.90;;;;;;5059763;28;20262;-73
2022/03/15 08:18:14;;;;;;;11.57;6.20;;;10.50;99.90;;;;;;5056700;28;20206;-74
2022/03/15 08:20:41;;;;;;;9.50;6.10;;;10.60;99.90;;;;;;5062545;28;20203;-73
2022/03/15 08:23:10;;;;;;;13.27;6.60;;;10.70;99.90;;;;;;5056285;28;20196;-77
2022/03/15 08:25:37;;;;;;;8.30;6.87;;;10.60;99.90;;;;;;5060279;28;20512;-75
2022/03/15 08:28:03;;;;;;;8.10;6.00;;;10.80;99.90;;;;;;5061545;28;20449;-72
2022/03/15 08:30:29;;;;;;;7.10;6.20;;;10.90;99.90;;;;;;5056563;28;20469;-72
2022/03/15 08:32:55;;;;;;;14.83;7.70;;;10.90;99.90;;;;;;5052819;28;20255;-74
2022/03/15 08:35:26;;;;;;;10.23;7.07;;;11.10;99.90;;;;;;5059785;28;21010;-73
2022/03/15 08:37:52;;;;;;;7.60;6.70;;;10.80;99.90;;;;;;5055370;28;20234;-73
2022/03/15 08:40:18;;;;;;;11.37;6.30;;;11.00;99.90;;;;;;5041604;28;20435;-73
2022/03/15 08:42:44;;;;;;;8.03;6.77;;;11.10;99.90;;;;;;5056703;28;20211;-74
2022/03/15 08:45:10;;;;;;;16.03;6.60;;;11.00;99.90;;;;;;5056313;28;20475;-74
2022/03/15 08:47:37;;;;;;;21.13;7.70;;;11.00;99.90;;;;;;5053951;28;20191;-71
2022/03/15 08:50:05;;;;;;;10.30;7.13;;;10.70;99.90;;;;;;5056303;28;20785;-74
2022/03/15 08:52:31;;;;;;;9.23;7.53;;;10.80;99.90;;;;;;5056788;28;20445;-72
2022/03/15 08:54:57;;;;;;;11.60;7.87;;;10.80;99.90;;;;;;5055328;28;20449;-74
2022/03/15 08:57:23;;;;;;;9.50;6.37;;;10.30;99.90;;;;;;5055189;28;20469;-73
2022/03/15 08:59:49;;;;;;;12.87;7.67;;;10.20;99.90;;;;;;5051154;28;20175;-72
2022/03/15 09:02:17;;;;;;;13.30;6.90;;;10.20;99.90;;;;;;5055021;28;20484;-74
2022/03/15 09:04:45;;;;;;;14.50;8.30;;;10.40;99.90;;;;;;5042739;28;20470;-73
2022/03/15 09:07:11;;;;;;;10.07;7.50;;;10.20;99.90;;;;;;5056100;28;20469;-72
2022/03/15 09:09:37;;;;;;;10.57;7.07;;;10.10;99.90;;;;;;5052016;28;20783;-73
2022/03/15 09:12:03;;;;;;;13.00;7.73;;;9.90;99.90;;;;;;5035766;28;20199;-74
2022/03/15 09:14:29;;;;;;;16.27;8.30;;;9.90;99.90;;;;;;5053618;28;20506;-73
2022/03/15 09:16:55;;;;;;;10.97;7.10;;;9.90;99.90;;;;;;5050998;28;20466;-73
2022/03/15 09:19:21;;;;;;;11.97;7.43;;;9.80;99.90;;;;;;5057541;28;20910;-74
2022/03/15 09:21:47;;;;;;;12.90;7.60;;;10.00;99.90;;;;;;5051029;28;20207;-73
2022/03/15 09:24:13;;;;;;;8.17;6.97;;;10.20;99.90;;;;;;5052936;28;20471;-74
2022/03/15 09:26:41;;;;;;;7.93;7.13;;;10.20;99.90;;;;;;5052180;28;20631;-74
2022/03/15 09:29:07;;;;;;;11.50;7.17;;;10.10;99.90;;;;;;5037916;28;20512;-73
2022/03/15 09:31:33;;;;;;;10.00;7.27;;;10.30;99.90;;;;;;5039233;28;20460;-72
2022/03/15 09:33:58;;;;;;;10.40;7.20;;;10.30;99.90;;;;;;5041240;28;20187;-73
2022/03/15 09:36:24;;;;;;;14.10;7.80;;;10.20;99.90;;;;;;5037684;28;20199;-72
2022/03/15 09:38:50;;;;;;;11.97;7.40;;;10.30;99.90;;;;;;5055178;28;20176;-73
2022/03/15 09:41:19;;;;;;;10.43;7.70;;;10.60;99.90;;;;;;5053463;28;20517;-74
2022/03/15 09:43:45;;;;;;;11.83;7.20;;;11.00;99.90;;;;;;5053732;28;20226;-71
2022/03/15 09:46:12;;;;;;;10.50;6.73;;;11.10;99.90;;;;;;5056845;28;20432;-72
2022/03/15 09:48:40;;;;;;;10.53;7.40;;;11.00;99.90;;;;;;5056804;28;20516;-71
2022/03/15 09:51:09;;;;;;;10.47;6.50;;;11.20;99.90;;;;;;5057063;28;20539;-74
2022/03/15 09:53:36;;;;;;;10.77;6.80;;;11.20;99.90;;;;;;5057200;28;20822;-71
2022/03/15 09:56:02;;;;;;;17.93;9.20;;;11.30;99.90;;;;;;5052970;28;20823;-71
2022/03/15 09:58:27;;;;;;;8.40;6.30;;;11.40;99.90;;;;;;5054498;28;20553;-72
2022/03/15 10:00:55;;;;;;;10.33;6.90;;;11.40;99.90;;;;;;5058112;28;20643;-73
2022/03/15 10:03:22;;;;;;;9.40;6.93;;;11.50;99.90;;;;;;5058384;28;20546;-73
2022/03/15 10:05:49;;;;;;;15.23;7.80;;;11.50;99.90;;;;;;5044404;28;20429;-73
2022/03/15 10:08:16;;;;;;;10.50;6.63;;;11.50;99.90;;;;;;5063273;28;20942;-73
2022/03/15 10:10:43;;;;;;;9.83;6.40;;;11.40;99.90;;;;;;5056696;28;20863;-74
2022/03/15 10:13:09;;;;;;;10.33;6.80;;;11.40;99.90;;;;;;5059345;28;20461;-73
2022/03/15 10:15:35;;;;;;;11.87;6.40;;;11.20;99.90;;;;;;5057697;28;20437;-74
2022/03/15 10:18:04;;;;;;;10.93;7.30;;;11.40;99.90;;;;;;5059426;28;20479;-76
2022/03/15 10:20:42;;;;;;;12.47;7.70;;;11.60;99.90;;;;;;5055910;28;20483;-74
2022/03/15 10:23:10;;;;;;;14.27;7.37;;;11.70;99.90;;;;;;5040924;28;20458;-74
2022/03/15 10:25:37;;;;;;;7.33;6.33;;;11.60;99.90;;;;;;5053452;28;20978;-74
2022/03/15 10:28:06;;;;;;;9.07;6.20;;;11.70;99.90;;;;;;5059535;28;20483;-73
2022/03/15 10:30:33;;;;;;;11.47;8.17;;;11.70;99.90;;;;;;5057402;28;20426;-72
2022/03/15 10:32:59;;;;;;;8.40;6.97;;;11.60;99.90;;;;;;5039916;28;21084;-71
2022/03/15 10:35:28;;;;;;;8.00;6.40;;;11.60;99.90;;;;;;5040099;28;20564;-73
2022/03/15 10:37:55;;;;;;;11.40;6.63;;;11.40;99.90;;;;;;5059048;28;20974;-73
2022/03/15 10:40:41;;;;;;;9.87;7.10;;;11.50;99.90;;;;;;5056748;28;20884;-74
2022/03/15 10:43:14;;;;;;;10.40;6.80;;;11.50;99.90;;;;;;5055756;28;20822;-74
2022/03/15 10:45:46;;;;;;;12.20;8.20;;;11.50;99.90;;;;;;5052158;28;20568;-73
2022/03/15 10:48:22;;;;;;;8.57;7.13;;;11.60;99.90;;;;;;5055795;28;20552;-71
2022/03/15 10:50:56;;;;;;;10.87;7.50;;;11.50;99.90;;;;;;5042504;28;20900;-71
2022/03/15 10:53:25;;;;;;;15.43;8.53;;;11.50;99.90;;;;;;5055634;28;20444;-72
2022/03/15 10:56:07;;;;;;;11.10;7.73;;;11.50;99.90;;;;;;5058913;28;20445;-72
2022/03/15 10:58:34;;;;;;;14.37;8.10;;;11.60;99.90;;;;;;5040009;28;20640;-75
2022/03/15 11:00:59;;;;;;;12.00;8.43;;;11.60;99.90;;;;;;5054139;28;20770;-73
2022/03/15 11:03:29;;;;;;;11.60;6.93;;;11.60;99.90;;;;;;5053230;28;20441;-73
2022/03/15 11:05:57;;;;;;;12.37;7.57;;;11.60;99.90;;;;;;5052359;28;20188;-75
2022/03/15 11:08:23;;;;;;;10.00;7.20;;;11.70;99.90;;;;;;5054378;28;20434;-74
2022/03/15 11:10:51;;;;;;;10.97;7.67;;;11.50;99.90;;;;;;5041449;28;20448;-76
2022/03/15 11:13:21;;;;;;;10.80;7.63;;;11.60;99.90;;;;;;5059838;28;20452;-73
2022/03/15 11:15:53;;;;;;;9.20;7.50;;;11.50;99.90;;;;;;5055886;28;20417;-73
2022/03/15 11:18:19;;;;;;;12.57;8.30;;;11.50;99.90;;;;;;5053585;28;20457;-72
2022/03/15 11:20:51;;;;;;;13.50;8.50;;;11.60;99.90;;;;;;5058708;28;20564;-73
2022/03/15 11:23:19;;;;;;;13.50;7.20;;;11.50;99.90;;;;;;5055197;28;20460;-74
2022/03/15 11:25:57;;;;;;;9.83;7.00;;;11.60;99.90;;;;;;5055085;28;20958;-72
2022/03/15 11:28:29;;;;;;;10.63;7.60;;;11.70;99.90;;;;;;5053632;28;20453;-72
2022/03/15 11:30:56;;;;;;;8.20;6.43;;;11.80;99.90;;;;;;5053719;28;20989;-74
2022/03/15 11:33:23;;;;;;;10.90;7.23;;;11.90;99.90;;;;;;5052741;28;20552;-73
2022/03/15 11:35:49;;;;;;;15.03;8.40;;;11.80;99.90;;;;;;5053551;28;20473;-74
2022/03/15 11:38:15;;;;;;;10.30;8.23;;;11.90;99.90;;;;;;5053682;28;21279;-72
2022/03/15 11:40:42;;;;;;;12.00;7.37;;;12.10;99.90;;;;;;5054103;28;20464;-72
2022/03/15 11:43:16;;;;;;;10.40;8.60;;;12.10;99.90;;;;;;5056540;28;20646;-74
2022/03/15 11:45:51;;;;;;;8.47;7.37;;;12.10;99.90;;;;;;5054125;28;20420;-75
2022/03/15 11:48:29;;;;;;;14.30;7.80;;;12.20;99.90;;;;;;5056601;28;20765;-73
2022/03/15 11:51:18;;;;;;;10.10;6.73;;;12.10;99.90;;;;;;5058040;28;20445;-74
2022/03/15 11:53:44;;;;;;;9.90;7.07;;;12.30;99.90;;;;;;5056924;28;20434;-75
2022/03/15 11:56:34;;;;;;;13.13;7.67;;;12.20;99.90;;;;;;5056640;28;20452;-73
2022/03/15 11:59:01;;;;;;;9.23;7.17;;;12.30;99.90;;;;;;5040365;28;20187;-74
2022/03/15 12:01:28;;;;;;;13.60;7.37;;;12.20;99.90;;;;;;5045623;28;20496;-74
2022/03/15 12:03:59;;;;;;;11.27;7.53;;;12.20;99.90;;;;;;5058508;28;20417;-74
2022/03/15 12:06:30;;;;;;;11.60;7.13;;;12.40;99.90;;;;;;5054237;28;20507;-75
2022/03/15 12:09:00;;;;;;;10.10;8.20;;;12.30;99.90;;;;;;5050337;28;21008;-74
2022/03/15 12:11:34;;;;;;;14.70;7.70;;;12.30;99.90;;;;;;5054452;28;20448;-75
2022/03/15 12:14:08;;;;;;;10.53;7.73;;;12.40;99.90;;;;;;5058777;28;20482;-74
2022/03/15 12:16:47;;;;;;;10.40;7.90;;;12.40;99.90;;;;;;5056579;28;20430;-73
2022/03/15 12:19:49;;;;;;;8.60;7.43;;;12.30;99.90;;;;;;5055176;28;20432;-74
2022/03/15 12:22:30;;;;;;;8.70;7.40;;;12.20;99.90;;;;;;5060498;28;20974;-73
2022/03/15 12:25:04;;;;;;;9.60;7.30;;;12.20;99.90;;;;;;5060420;28;20450;-75
2022/03/15 12:27:30;;;;;;;7.90;6.40;;;12.10;99.90;;;;;;5053808;28;20481;-74
2022/03/15 12:29:59;;;;;;;9.90;7.10;;;12.00;99.90;;;;;;5058464;28;20457;-74
2022/03/15 12:32:26;;;;;;;12.00;7.13;;;12.30;99.90;;;;;;5061652;28;20223;-74
2022/03/15 12:34:55;;;;;;;14.33;8.10;;;12.50;99.90;;;;;;5057473;28;20434;-75
2022/03/15 12:37:37;;;;;;;12.17;7.70;;;12.60;99.90;;;;;;5056430;28;20982;-74
2022/03/15 12:40:06;;;;;;;8.20;7.37;;;12.30;99.90;;;;;;5058086;28;21147;-74
2022/03/15 12:42:33;;;;;;;11.70;7.97;;;12.30;99.90;;;;;;5057110;28;20532;-74
2022/03/15 12:45:04;;;;;;;10.13;8.10;;;12.10;99.90;;;;;;5059189;28;21096;-75
2022/03/15 12:47:32;;;;;;;13.37;7.70;;;12.20;99.90;;;;;;5054495;28;20453;-75